sensor_id;sensor_type;location;lat;lon;timestamp;pressure;altitude;pressure_sealevel;temperature;humidity
25232;BME280;13176;51.140;6.290;2024-03-22T00:00:32;101483.84;;;15.68;78.41
25232;BME280;13176;51.140;6.290;2024-03-22T00:02:58;101455.63;;;15.37;79.49
25232;BME280;13176;51.140;6.290;2024-03-22T00:05:23;101457.00;;;15.53;78.49
25232;BME280;13176;51.140;6.290;2024-03-22T00:07:49;101460.41;;;15.59;79.04
25232;BME280;13176;51.140;6.290;2024-03-22T00:10:14;101422.06;;;15.07;80.23
25232;BME280;13176;51.140;6.290;2024-03-22T00:12:40;101485.34;;;15.42;79.68
25232;BME280;13176;51.140;6.290;2024-03-22T00:15:06;101426.41;;;15.08;80.67
25232;BME280;13176;51.140;6.290;2024-03-22T00:17:31;101374.59;;;14.71;80.81
25232;BME280;13176;51.140;6.290;2024-03-22T00:19:59;101393.69;;;15.22;79.49
25232;BME280;13176;51.140;6.290;2024-03-22T00:22:25;101431.03;;;14.95;82.04
25232;BME280;13176;51.140;6.290;2024-03-22T00:24:50;101452.63;;;15.53;80.03
25232;BME280;13176;51.140;6.290;2024-03-22T00:27:16;101410.78;;;15.00;82.11
25232;BME280;13176;51.140;6.290;2024-03-22T00:29:41;101443.25;;;14.98;83.32
25232;BME280;13176;51.140;6.290;2024-03-22T00:32:07;101454.88;;;15.30;81.86
25232;BME280;13176;51.140;6.290;2024-03-22T00:34:34;101438.25;;;15.30;81.73
25232;BME280;13176;51.140;6.290;2024-03-22T00:36:59;101438.59;;;15.54;80.62
25232;BME280;13176;51.140;6.290;2024-03-22T00:39:25;101417.72;;;15.45;80.99
25232;BME280;13176;51.140;6.290;2024-03-22T00:41:50;101407.84;;;15.56;79.88
25232;BME280;13176;51.140;6.290;2024-03-22T00:44:16;101433.50;;;15.45;81.34
25232;BME280;13176;51.140;6.290;2024-03-22T00:46:41;101419.28;;;15.55;80.82
25232;BME280;13176;51.140;6.290;2024-03-22T00:49:07;101388.16;;;15.34;81.07
25232;BME280;13176;51.140;6.290;2024-03-22T00:51:32;101423.69;;;15.53;81.20
25232;BME280;13176;51.140;6.290;2024-03-22T00:53:58;101410.69;;;15.47;80.93
25232;BME280;13176;51.140;6.290;2024-03-22T00:56:23;101363.66;;;15.32;80.27
25232;BME280;13176;51.140;6.290;2024-03-22T00:58:49;101387.53;;;15.22;82.13
25232;BME280;13176;51.140;6.290;2024-03-22T01:01:14;101355.97;;;15.22;80.92
25232;BME280;13176;51.140;6.290;2024-03-22T01:03:40;101363.59;;;15.35;80.63
25232;BME280;13176;51.140;6.290;2024-03-22T01:06:05;101427.69;;;15.69;81.03
25232;BME280;13176;51.140;6.290;2024-03-22T01:08:31;101403.56;;;15.52;81.38
25232;BME280;13176;51.140;6.290;2024-03-22T01:10:56;101389.63;;;15.47;81.28
25232;BME280;13176;51.140;6.290;2024-03-22T01:13:22;101403.47;;;15.55;81.53
25232;BME280;13176;51.140;6.290;2024-03-22T01:15:48;101405.16;;;15.59;81.25
25232;BME280;13176;51.140;6.290;2024-03-22T01:18:13;101400.41;;;15.73;80.69
25232;BME280;13176;51.140;6.290;2024-03-22T01:20:39;101403.13;;;15.70;81.41
25232;BME280;13176;51.140;6.290;2024-03-22T01:23:04;101352.03;;;15.44;81.53
25232;BME280;13176;51.140;6.290;2024-03-22T01:25:30;101354.81;;;15.36;81.94
25232;BME280;13176;51.140;6.290;2024-03-22T01:27:56;101391.88;;;15.64;81.49
25232;BME280;13176;51.140;6.290;2024-03-22T01:30:22;101371.59;;;15.67;81.48
25232;BME280;13176;51.140;6.290;2024-03-22T01:32:47;101382.69;;;15.81;80.81
25232;BME280;13176;51.140;6.290;2024-03-22T01:35:13;101395.50;;;15.95;80.49
25232;BME280;13176;51.140;6.290;2024-03-22T01:37:38;101357.19;;;15.83;79.98
25232;BME280;13176;51.140;6.290;2024-03-22T01:40:04;101380.19;;;15.75;81.45
25232;BME280;13176;51.140;6.290;2024-03-22T01:42:30;101381.41;;;15.97;80.61
25232;BME280;13176;51.140;6.290;2024-03-22T01:44:56;101324.50;;;15.58;81.41
25232;BME280;13176;51.140;6.290;2024-03-22T01:47:21;101372.56;;;16.01;80.40
25232;BME280;13176;51.140;6.290;2024-03-22T01:49:49;101371.97;;;15.89;81.13
25232;BME280;13176;51.140;6.290;2024-03-22T01:52:16;101353.09;;;15.72;82.26
25232;BME280;13176;51.140;6.290;2024-03-22T01:54:41;101308.69;;;15.58;81.04
25232;BME280;13176;51.140;6.290;2024-03-22T01:57:08;101277.31;;;15.13;83.18
25232;BME280;13176;51.140;6.290;2024-03-22T01:59:34;101366.19;;;15.73;82.40
25232;BME280;13176;51.140;6.290;2024-03-22T02:01:59;101362.97;;;15.62;83.78
25232;BME280;13176;51.140;6.290;2024-03-22T02:04:25;101279.34;;;15.00;84.93
25232;BME280;13176;51.140;6.290;2024-03-22T02:06:50;101335.53;;;15.72;82.65
25232;BME280;13176;51.140;6.290;2024-03-22T02:09:16;101305.53;;;15.79;81.85
25232;BME280;13176;51.140;6.290;2024-03-22T02:11:42;101315.31;;;15.74;82.71
25232;BME280;13176;51.140;6.290;2024-03-22T02:14:08;101311.78;;;15.75;82.30
25232;BME280;13176;51.140;6.290;2024-03-22T02:16:33;101331.41;;;15.96;81.68
25232;BME280;13176;51.140;6.290;2024-03-22T02:18:59;101334.41;;;15.82;82.84
25232;BME280;13176;51.140;6.290;2024-03-22T02:21:24;101330.09;;;15.45;85.09
25232;BME280;13176;51.140;6.290;2024-03-22T02:23:50;101325.75;;;15.42;85.16
25232;BME280;13176;51.140;6.290;2024-03-22T02:26:15;101314.66;;;15.65;83.31
25232;BME280;13176;51.140;6.290;2024-03-22T02:28:41;101277.13;;;15.58;83.31
25232;BME280;13176;51.140;6.290;2024-03-22T02:31:06;101240.00;;;14.97;85.79
25232;BME280;13176;51.140;6.290;2024-03-22T02:33:32;101277.16;;;15.19;85.71
25232;BME280;13176;51.140;6.290;2024-03-22T02:35:57;101311.47;;;15.52;84.82
25232;BME280;13176;51.140;6.290;2024-03-22T02:38:23;101205.16;;;14.89;84.38
25232;BME280;13176;51.140;6.290;2024-03-22T02:40:51;101307.81;;;15.58;84.72
25232;BME280;13176;51.140;6.290;2024-03-22T02:43:17;101276.97;;;15.29;84.90
25232;BME280;13176;51.140;6.290;2024-03-22T02:45:44;101299.97;;;15.56;83.62
25232;BME280;13176;51.140;6.290;2024-03-22T02:48:09;101173.56;;;14.92;83.31
25232;BME280;13176;51.140;6.290;2024-03-22T02:50:36;101302.88;;;15.06;87.18
25232;BME280;13176;51.140;6.290;2024-03-22T02:53:02;101303.03;;;15.73;83.67
25232;BME280;13176;51.140;6.290;2024-03-22T02:55:29;101305.38;;;15.50;84.57
25232;BME280;13176;51.140;6.290;2024-03-22T02:57:56;101215.50;;;14.95;84.96
25232;BME280;13176;51.140;6.290;2024-03-22T03:00:23;101281.25;;;15.33;85.25
25232;BME280;13176;51.140;6.290;2024-03-22T03:02:49;101278.13;;;15.16;86.36
25232;BME280;13176;51.140;6.290;2024-03-22T03:05:14;101281.50;;;15.58;84.67
25232;BME280;13176;51.140;6.290;2024-03-22T03:07:40;101259.09;;;15.43;84.58
25232;BME280;13176;51.140;6.290;2024-03-22T03:10:06;101221.22;;;15.50;82.87
25232;BME280;13176;51.140;6.290;2024-03-22T03:12:32;101239.09;;;15.36;84.45
25232;BME280;13176;51.140;6.290;2024-03-22T03:14:58;101267.47;;;15.59;84.79
25232;BME280;13176;51.140;6.290;2024-03-22T03:17:23;101209.53;;;15.27;84.23
25232;BME280;13176;51.140;6.290;2024-03-22T03:19:49;101249.72;;;15.67;83.28
25232;BME280;13176;51.140;6.290;2024-03-22T03:22:14;101240.25;;;15.60;83.10
25232;BME280;13176;51.140;6.290;2024-03-22T03:24:40;101253.78;;;15.78;83.36
25232;BME280;13176;51.140;6.290;2024-03-22T03:27:06;101103.81;;;14.80;83.37
25232;BME280;13176;51.140;6.290;2024-03-22T03:29:31;101204.66;;;15.10;85.17
25232;BME280;13176;51.140;6.290;2024-03-22T03:31:57;101197.44;;;15.18;84.37
25232;BME280;13176;51.140;6.290;2024-03-22T03:34:22;101160.84;;;15.09;83.34
25232;BME280;13176;51.140;6.290;2024-03-22T03:36:48;101259.72;;;15.15;85.94
25232;BME280;13176;51.140;6.290;2024-03-22T03:39:13;101216.41;;;15.32;83.98
25232;BME280;13176;51.140;6.290;2024-03-22T03:41:39;101229.84;;;15.55;83.46
25232;BME280;13176;51.140;6.290;2024-03-22T03:44:04;101235.59;;;15.69;82.62
25232;BME280;13176;51.140;6.290;2024-03-22T03:46:30;101236.84;;;15.56;83.40
25232;BME280;13176;51.140;6.290;2024-03-22T03:48:55;101197.28;;;14.89;85.47
25232;BME280;13176;51.140;6.290;2024-03-22T03:51:21;101217.97;;;15.39;83.74
25232;BME280;13176;51.140;6.290;2024-03-22T03:53:46;101180.63;;;14.89;85.53
25232;BME280;13176;51.140;6.290;2024-03-22T03:56:11;101168.53;;;14.83;86.22
25232;BME280;13176;51.140;6.290;2024-03-22T03:58:37;101163.06;;;14.92;84.39
25232;BME280;13176;51.140;6.290;2024-03-22T04:01:09;101207.31;;;15.45;83.52
25232;BME280;13176;51.140;6.290;2024-03-22T04:03:35;101181.06;;;15.42;82.46
25232;BME280;13176;51.140;6.290;2024-03-22T04:06:01;101207.56;;;15.68;81.55
25232;BME280;13176;51.140;6.290;2024-03-22T04:08:27;101165.09;;;15.15;83.65
25232;BME280;13176;51.140;6.290;2024-03-22T04:10:53;101165.06;;;15.51;81.16
25232;BME280;13176;51.140;6.290;2024-03-22T04:13:19;101137.13;;;15.12;82.16
25232;BME280;13176;51.140;6.290;2024-03-22T04:15:44;101189.72;;;15.47;82.73
25232;BME280;13176;51.140;6.290;2024-03-22T04:18:10;101141.41;;;15.16;82.76
25232;BME280;13176;51.140;6.290;2024-03-22T04:20:35;101165.38;;;15.39;82.29
25232;BME280;13176;51.140;6.290;2024-03-22T04:23:01;101151.47;;;15.34;81.76
25232;BME280;13176;51.140;6.290;2024-03-22T04:25:26;101165.16;;;15.48;81.07
25232;BME280;13176;51.140;6.290;2024-03-22T04:27:52;101148.69;;;15.72;79.88
25232;BME280;13176;51.140;6.290;2024-03-22T04:30:17;101154.31;;;15.60;80.25
25232;BME280;13176;51.140;6.290;2024-03-22T04:32:46;101166.94;;;15.46;81.10
25232;BME280;13176;51.140;6.290;2024-03-22T04:35:12;101138.53;;;15.60;79.44
25232;BME280;13176;51.140;6.290;2024-03-22T04:37:37;101154.31;;;15.60;79.96
25232;BME280;13176;51.140;6.290;2024-03-22T04:40:03;101083.81;;;14.74;82.54
25232;BME280;13176;51.140;6.290;2024-03-22T04:42:29;101066.16;;;15.12;80.12
25232;BME280;13176;51.140;6.290;2024-03-22T04:44:54;101153.47;;;15.58;80.65
25232;BME280;13176;51.140;6.290;2024-03-22T04:47:20;101081.22;;;15.39;79.47
25232;BME280;13176;51.140;6.290;2024-03-22T04:49:45;101103.50;;;15.58;79.56
25232;BME280;13176;51.140;6.290;2024-03-22T04:52:11;101117.66;;;15.53;80.24
25232;BME280;13176;51.140;6.290;2024-03-22T04:54:36;101118.84;;;15.43;80.32
25232;BME280;13176;51.140;6.290;2024-03-22T04:57:02;101123.28;;;15.41;80.87
25232;BME280;13176;51.140;6.290;2024-03-22T04:59:28;101130.75;;;15.22;81.17
25232;BME280;13176;51.140;6.290;2024-03-22T05:01:53;101006.53;;;14.81;79.97
25232;BME280;13176;51.140;6.290;2024-03-22T05:04:19;101101.56;;;15.33;80.20
25232;BME280;13176;51.140;6.290;2024-03-22T05:06:44;101089.50;;;15.24;80.11
25232;BME280;13176;51.140;6.290;2024-03-22T05:09:10;101142.13;;;15.56;80.10
25232;BME280;13176;51.140;6.290;2024-03-22T05:11:35;101115.63;;;15.32;80.57
25232;BME280;13176;51.140;6.290;2024-03-22T05:14:01;101104.22;;;15.31;80.65
25232;BME280;13176;51.140;6.290;2024-03-22T05:16:26;101110.56;;;15.56;79.76
25232;BME280;13176;51.140;6.290;2024-03-22T05:18:52;100998.34;;;14.93;78.71
25232;BME280;13176;51.140;6.290;2024-03-22T05:21:17;101007.34;;;15.15;77.92
25232;BME280;13176;51.140;6.290;2024-03-22T05:23:43;101120.00;;;15.31;80.75
25232;BME280;13176;51.140;6.290;2024-03-22T05:26:08;101111.41;;;14.90;82.58
25232;BME280;13176;51.140;6.290;2024-03-22T05:28:34;101109.78;;;15.19;81.14
25232;BME280;13176;51.140;6.290;2024-03-22T05:30:59;101121.94;;;14.90;82.88
25232;BME280;13176;51.140;6.290;2024-03-22T05:33:25;101103.66;;;15.52;79.84
25232;BME280;13176;51.140;6.290;2024-03-22T05:35:50;101102.81;;;15.18;80.90
25232;BME280;13176;51.140;6.290;2024-03-22T05:38:16;101109.25;;;15.40;79.76
25232;BME280;13176;51.140;6.290;2024-03-22T05:40:41;101112.47;;;15.51;79.78
25232;BME280;13176;51.140;6.290;2024-03-22T05:43:07;101143.88;;;15.57;80.75
25232;BME280;13176;51.140;6.290;2024-03-22T05:45:32;101084.00;;;15.33;79.80
25232;BME280;13176;51.140;6.290;2024-03-22T05:47:58;101140.25;;;15.61;80.02
25232;BME280;13176;51.140;6.290;2024-03-22T05:50:23;100999.16;;;14.62;80.75
25232;BME280;13176;51.140;6.290;2024-03-22T05:52:48;101132.75;;;15.78;79.54
25232;BME280;13176;51.140;6.290;2024-03-22T05:55:14;101138.75;;;15.83;79.20
25232;BME280;13176;51.140;6.290;2024-03-22T05:57:39;101030.50;;;15.34;78.11
25232;BME280;13176;51.140;6.290;2024-03-22T06:00:05;101115.09;;;15.51;80.29
25232;BME280;13176;51.140;6.290;2024-03-22T06:02:32;101060.81;;;15.15;80.51
25232;BME280;13176;51.140;6.290;2024-03-22T06:04:58;101117.13;;;15.40;81.02
25232;BME280;13176;51.140;6.290;2024-03-22T06:07:24;101111.22;;;15.64;80.12
25232;BME280;13176;51.140;6.290;2024-03-22T06:09:50;101096.44;;;15.60;79.63
25232;BME280;13176;51.140;6.290;2024-03-22T06:12:18;101126.63;;;15.78;79.64
25232;BME280;13176;51.140;6.290;2024-03-22T06:14:44;101019.31;;;14.94;81.03
25232;BME280;13176;51.140;6.290;2024-03-22T06:17:10;101101.94;;;15.51;80.49
25232;BME280;13176;51.140;6.290;2024-03-22T06:19:36;101117.41;;;15.63;80.72
25232;BME280;13176;51.140;6.290;2024-03-22T06:22:02;101075.53;;;15.54;80.63
25232;BME280;13176;51.140;6.290;2024-03-22T06:24:28;101104.59;;;15.80;79.44
25232;BME280;13176;51.140;6.290;2024-03-22T06:26:54;101094.88;;;15.53;80.85
25232;BME280;13176;51.140;6.290;2024-03-22T06:29:19;101087.63;;;15.61;80.40
25232;BME280;13176;51.140;6.290;2024-03-22T06:31:45;101114.66;;;15.66;80.70
25232;BME280;13176;51.140;6.290;2024-03-22T06:34:11;100974.31;;;15.06;80.08
25232;BME280;13176;51.140;6.290;2024-03-22T06:36:36;101089.81;;;16.05;78.70
25232;BME280;13176;51.140;6.290;2024-03-22T06:39:02;101083.13;;;15.95;78.62
25232;BME280;13176;51.140;6.290;2024-03-22T06:41:32;101106.94;;;15.60;81.73
25232;BME280;13176;51.140;6.290;2024-03-22T06:43:58;100970.41;;;14.90;80.72
25232;BME280;13176;51.140;6.290;2024-03-22T06:46:24;101052.94;;;15.47;80.82
25232;BME280;13176;51.140;6.290;2024-03-22T06:48:50;101097.50;;;15.53;82.24
25232;BME280;13176;51.140;6.290;2024-03-22T06:51:15;101084.78;;;15.69;80.75
25232;BME280;13176;51.140;6.290;2024-03-22T06:53:41;101086.53;;;15.68;81.24
25232;BME280;13176;51.140;6.290;2024-03-22T06:56:07;101003.47;;;14.97;82.55
25232;BME280;13176;51.140;6.290;2024-03-22T06:58:35;101065.69;;;15.91;79.82
25232;BME280;13176;51.140;6.290;2024-03-22T07:01:01;101107.13;;;15.54;82.99
25232;BME280;13176;51.140;6.290;2024-03-22T07:03:27;101084.13;;;15.91;81.00
25232;BME280;13176;51.140;6.290;2024-03-22T07:05:52;100974.88;;;15.48;79.89
25232;BME280;13176;51.140;6.290;2024-03-22T07:08:18;101088.25;;;15.99;80.78
25232;BME280;13176;51.140;6.290;2024-03-22T07:10:44;101072.50;;;15.98;80.44
25232;BME280;13176;51.140;6.290;2024-03-22T07:13:10;101079.94;;;16.13;80.21
25232;BME280;13176;51.140;6.290;2024-03-22T07:15:36;101079.84;;;16.16;80.16
25232;BME280;13176;51.140;6.290;2024-03-22T07:18:02;101091.09;;;16.21;79.86
25232;BME280;13176;51.140;6.290;2024-03-22T07:20:28;101061.09;;;15.98;79.79
25232;BME280;13176;51.140;6.290;2024-03-22T07:22:54;101062.59;;;16.35;78.79
25232;BME280;13176;51.140;6.290;2024-03-22T07:25:19;101079.69;;;16.20;79.05
25232;BME280;13176;51.140;6.290;2024-03-22T07:27:45;101048.06;;;16.22;78.45
25232;BME280;13176;51.140;6.290;2024-03-22T07:30:11;101037.78;;;16.14;77.74
25232;BME280;13176;51.140;6.290;2024-03-22T07:32:37;101072.41;;;16.01;78.33
25232;BME280;13176;51.140;6.290;2024-03-22T07:35:03;101060.19;;;15.70;80.30
25232;BME280;13176;51.140;6.290;2024-03-22T07:37:28;101070.81;;;16.52;76.74
25232;BME280;13176;51.140;6.290;2024-03-22T07:39:54;101067.78;;;16.38;76.59
25232;BME280;13176;51.140;6.290;2024-03-22T07:42:19;101067.72;;;16.39;76.79
25232;BME280;13176;51.140;6.290;2024-03-22T07:44:46;101047.31;;;16.46;76.48
25232;BME280;13176;51.140;6.290;2024-03-22T07:47:12;101058.19;;;16.63;75.85
25232;BME280;13176;51.140;6.290;2024-03-22T07:49:37;101016.84;;;15.81;77.41
25232;BME280;13176;51.140;6.290;2024-03-22T07:52:03;101064.88;;;16.73;75.07
25232;BME280;13176;51.140;6.290;2024-03-22T07:54:29;101023.31;;;16.00;76.72
25232;BME280;13176;51.140;6.290;2024-03-22T07:56:55;101050.59;;;16.25;77.16
25232;BME280;13176;51.140;6.290;2024-03-22T07:59:20;101049.75;;;16.52;76.57
25232;BME280;13176;51.140;6.290;2024-03-22T08:01:46;101004.69;;;15.77;76.89
25232;BME280;13176;51.140;6.290;2024-03-22T08:04:12;101028.94;;;15.88;77.58
25232;BME280;13176;51.140;6.290;2024-03-22T08:06:37;101005.88;;;16.51;74.27
25232;BME280;13176;51.140;6.290;2024-03-22T08:09:03;101078.97;;;16.98;74.70
25232;BME280;13176;51.140;6.290;2024-03-22T08:11:29;101083.53;;;16.93;74.33
25232;BME280;13176;51.140;6.290;2024-03-22T08:13:54;101041.06;;;16.21;76.38
25232;BME280;13176;51.140;6.290;2024-03-22T08:16:27;101064.44;;;16.85;74.53
25232;BME280;13176;51.140;6.290;2024-03-22T08:18:53;100947.63;;;16.06;73.65
25232;BME280;13176;51.140;6.290;2024-03-22T08:21:19;100972.94;;;16.64;73.57
25232;BME280;13176;51.140;6.290;2024-03-22T08:23:44;101069.88;;;17.30;73.09
25232;BME280;13176;51.140;6.290;2024-03-22T08:26:10;101047.38;;;17.20;72.76
25232;BME280;13176;51.140;6.290;2024-03-22T08:28:35;101080.41;;;17.32;72.71
25232;BME280;13176;51.140;6.290;2024-03-22T08:31:04;101081.00;;;17.64;72.29
25232;BME280;13176;51.140;6.290;2024-03-22T08:33:30;101067.16;;;16.83;74.04
25232;BME280;13176;51.140;6.290;2024-03-22T08:35:56;101085.97;;;16.73;74.90
25232;BME280;13176;51.140;6.290;2024-03-22T08:38:21;101076.13;;;17.04;73.83
25232;BME280;13176;51.140;6.290;2024-03-22T08:40:47;101068.53;;;16.69;74.94
25232;BME280;13176;51.140;6.290;2024-03-22T08:43:12;101034.34;;;16.92;74.03
25232;BME280;13176;51.140;6.290;2024-03-22T08:45:38;101073.75;;;17.20;73.74
25232;BME280;13176;51.140;6.290;2024-03-22T08:48:03;101074.16;;;16.84;74.06
25232;BME280;13176;51.140;6.290;2024-03-22T08:50:30;101071.66;;;16.80;73.64
25232;BME280;13176;51.140;6.290;2024-03-22T08:52:56;101047.06;;;16.26;75.91
25232;BME280;13176;51.140;6.290;2024-03-22T08:55:22;101067.00;;;16.62;74.91
25232;BME280;13176;51.140;6.290;2024-03-22T08:57:47;101087.69;;;17.00;74.24
25232;BME280;13176;51.140;6.290;2024-03-22T09:00:13;101081.41;;;17.04;73.99
25232;BME280;13176;51.140;6.290;2024-03-22T09:02:38;101056.81;;;16.77;74.25
25232;BME280;13176;51.140;6.290;2024-03-22T09:05:05;101001.41;;;16.53;74.91
25232;BME280;13176;51.140;6.290;2024-03-22T09:07:30;100955.81;;;15.98;75.47
25232;BME280;13176;51.140;6.290;2024-03-22T09:09:56;101050.31;;;17.37;73.47
25232;BME280;13176;51.140;6.290;2024-03-22T09:12:22;101015.22;;;17.35;73.22
25232;BME280;13176;51.140;6.290;2024-03-22T09:14:47;101059.97;;;17.13;74.65
25232;BME280;13176;51.140;6.290;2024-03-22T09:17:13;101054.22;;;17.98;72.18
25232;BME280;13176;51.140;6.290;2024-03-22T09:19:38;101022.81;;;17.44;72.18
25232;BME280;13176;51.140;6.290;2024-03-22T09:22:04;101010.13;;;17.29;71.81
25232;BME280;13176;51.140;6.290;2024-03-22T09:24:29;101029.00;;;17.17;72.12
25232;BME280;13176;51.140;6.290;2024-03-22T09:26:55;100998.31;;;17.64;70.62
25232;BME280;13176;51.140;6.290;2024-03-22T09:29:20;101040.19;;;17.50;71.22
25232;BME280;13176;51.140;6.290;2024-03-22T09:31:46;101052.22;;;17.81;69.34
25232;BME280;13176;51.140;6.290;2024-03-22T09:34:12;101032.00;;;17.33;70.13
25232;BME280;13176;51.140;6.290;2024-03-22T09:36:38;100995.59;;;16.94;71.29
25232;BME280;13176;51.140;6.290;2024-03-22T09:39:04;100995.91;;;17.58;69.38
25232;BME280;13176;51.140;6.290;2024-03-22T09:41:31;101039.09;;;17.55;68.55
25232;BME280;13176;51.140;6.290;2024-03-22T09:43:58;101027.91;;;17.49;68.72
25232;BME280;13176;51.140;6.290;2024-03-22T09:46:26;101037.22;;;17.59;68.92
25232;BME280;13176;51.140;6.290;2024-03-22T09:48:54;100992.38;;;16.86;68.66
25232;BME280;13176;51.140;6.290;2024-03-22T09:51:20;101035.31;;;17.13;68.14
25232;BME280;13176;51.140;6.290;2024-03-22T09:53:51;101022.72;;;17.46;67.70
25232;BME280;13176;51.140;6.290;2024-03-22T09:56:18;101000.81;;;16.95;68.74
25232;BME280;13176;51.140;6.290;2024-03-22T09:58:46;101003.44;;;16.71;68.97
25232;BME280;13176;51.140;6.290;2024-03-22T10:01:12;101036.81;;;17.46;68.74
25232;BME280;13176;51.140;6.290;2024-03-22T10:03:38;101022.69;;;17.23;69.70
25232;BME280;13176;51.140;6.290;2024-03-22T10:06:04;101000.88;;;17.18;69.40
25232;BME280;13176;51.140;6.290;2024-03-22T10:08:30;100970.34;;;17.58;67.73
25232;BME280;13176;51.140;6.290;2024-03-22T10:10:55;100907.19;;;17.31;67.80
25232;BME280;13176;51.140;6.290;2024-03-22T10:13:21;100884.16;;;16.89;67.87
25232;BME280;13176;51.140;6.290;2024-03-22T10:15:47;100978.97;;;17.40;67.26
25232;BME280;13176;51.140;6.290;2024-03-22T10:18:14;101019.25;;;17.68;67.36
25232;BME280;13176;51.140;6.290;2024-03-22T10:20:40;100989.94;;;17.28;68.24
25232;BME280;13176;51.140;6.290;2024-03-22T10:23:07;100870.59;;;16.52;67.78
25232;BME280;13176;51.140;6.290;2024-03-22T10:25:34;100995.34;;;17.48;68.10
25232;BME280;13176;51.140;6.290;2024-03-22T10:27:59;101001.94;;;17.13;69.05
25232;BME280;13176;51.140;6.290;2024-03-22T10:30:25;100951.69;;;16.93;69.21
25232;BME280;13176;51.140;6.290;2024-03-22T10:32:52;100967.50;;;17.41;67.88
25232;BME280;13176;51.140;6.290;2024-03-22T10:35:18;100982.06;;;17.74;67.28
25232;BME280;13176;51.140;6.290;2024-03-22T10:37:44;100998.06;;;17.93;66.26
25232;BME280;13176;51.140;6.290;2024-03-22T10:40:10;100980.88;;;18.47;64.52
25232;BME280;13176;51.140;6.290;2024-03-22T10:42:41;100961.09;;;18.14;64.68
25232;BME280;13176;51.140;6.290;2024-03-22T10:45:08;100979.06;;;17.13;67.19
25232;BME280;13176;51.140;6.290;2024-03-22T10:47:36;100956.47;;;17.53;65.58
25232;BME280;13176;51.140;6.290;2024-03-22T10:50:09;100991.00;;;17.70;65.84
25232;BME280;13176;51.140;6.290;2024-03-22T10:52:45;100952.91;;;17.77;65.70
25232;BME280;13176;51.140;6.290;2024-03-22T10:55:26;100936.50;;;17.69;64.01
25232;BME280;13176;51.140;6.290;2024-03-22T10:57:59;100955.44;;;17.34;65.08
25232;BME280;13176;51.140;6.290;2024-03-22T11:00:28;100951.38;;;17.93;64.15
25232;BME280;13176;51.140;6.290;2024-03-22T11:02:55;100950.94;;;18.04;63.63
25232;BME280;13176;51.140;6.290;2024-03-22T11:05:21;100950.38;;;17.28;65.98
25232;BME280;13176;51.140;6.290;2024-03-22T11:07:46;100879.19;;;16.57;66.54
25232;BME280;13176;51.140;6.290;2024-03-22T11:10:12;100962.31;;;16.91;67.88
25232;BME280;13176;51.140;6.290;2024-03-22T11:12:39;100960.28;;;17.22;65.74
25232;BME280;13176;51.140;6.290;2024-03-22T11:15:05;100968.03;;;17.02;66.54
25232;BME280;13176;51.140;6.290;2024-03-22T11:17:31;100837.41;;;16.71;65.21
25232;BME280;13176;51.140;6.290;2024-03-22T11:19:56;100952.81;;;19.04;61.38
25232;BME280;13176;51.140;6.290;2024-03-22T11:22:22;100932.84;;;19.36;57.72
25232;BME280;13176;51.140;6.290;2024-03-22T11:24:48;100929.72;;;19.08;58.26
25232;BME280;13176;51.140;6.290;2024-03-22T11:27:13;100922.56;;;18.71;59.26
25232;BME280;13176;51.140;6.290;2024-03-22T11:29:39;100934.28;;;18.23;61.78
25232;BME280;13176;51.140;6.290;2024-03-22T11:32:09;100915.47;;;18.52;60.14
25232;BME280;13176;51.140;6.290;2024-03-22T11:34:38;100955.56;;;18.20;61.14
25232;BME280;13176;51.140;6.290;2024-03-22T11:37:07;100949.91;;;18.29;61.25
25232;BME280;13176;51.140;6.290;2024-03-22T11:39:39;100955.56;;;18.20;61.30
25232;BME280;13176;51.140;6.290;2024-03-22T11:42:06;100949.88;;;17.86;61.70
25232;BME280;13176;51.140;6.290;2024-03-22T11:44:33;100951.47;;;17.69;63.70
25232;BME280;13176;51.140;6.290;2024-03-22T11:47:01;100950.63;;;17.90;62.93
25232;BME280;13176;51.140;6.290;2024-03-22T11:49:28;100944.00;;;18.01;62.65
25232;BME280;13176;51.140;6.290;2024-03-22T11:51:56;100948.44;;;17.79;63.37
25232;BME280;13176;51.140;6.290;2024-03-22T11:54:22;100933.63;;;17.52;63.51
25232;BME280;13176;51.140;6.290;2024-03-22T11:56:49;100893.13;;;17.53;64.16
25232;BME280;13176;51.140;6.290;2024-03-22T11:59:14;100941.44;;;17.32;65.57
25232;BME280;13176;51.140;6.290;2024-03-22T12:01:40;100902.19;;;17.01;66.38
25232;BME280;13176;51.140;6.290;2024-03-22T12:04:06;100944.44;;;17.46;65.97
25232;BME280;13176;51.140;6.290;2024-03-22T12:06:36;100909.66;;;17.58;64.48
25232;BME280;13176;51.140;6.290;2024-03-22T12:09:01;100928.03;;;18.47;63.33
25232;BME280;13176;51.140;6.290;2024-03-22T12:11:29;100913.72;;;18.31;64.31
25232;BME280;13176;51.140;6.290;2024-03-22T12:13:54;100921.22;;;18.20;63.45
25232;BME280;13176;51.140;6.290;2024-03-22T12:16:20;100886.63;;;17.40;65.18
25232;BME280;13176;51.140;6.290;2024-03-22T12:18:45;100923.34;;;17.46;65.12
25232;BME280;13176;51.140;6.290;2024-03-22T12:21:10;100886.63;;;17.40;65.33
25232;BME280;13176;51.140;6.290;2024-03-22T12:23:36;100878.31;;;17.72;64.66
25232;BME280;13176;51.140;6.290;2024-03-22T12:26:02;100798.34;;;17.26;64.13
25232;BME280;13176;51.140;6.290;2024-03-22T12:28:27;100900.03;;;18.00;63.37
25232;BME280;13176;51.140;6.290;2024-03-22T12:30:53;100897.56;;;18.38;62.95
25232;BME280;13176;51.140;6.290;2024-03-22T12:33:18;100868.38;;;18.20;63.40
25232;BME280;13176;51.140;6.290;2024-03-22T12:35:44;100858.34;;;18.28;64.41
25232;BME280;13176;51.140;6.290;2024-03-22T12:38:09;100883.72;;;18.92;61.48
25232;BME280;13176;51.140;6.290;2024-03-22T12:40:39;100840.13;;;18.42;61.77
25232;BME280;13176;51.140;6.290;2024-03-22T12:43:05;100766.19;;;17.81;63.23